createdAt,value
2019-05-23T00:00:34.568Z,17.20
2019-05-23T00:05:40.679Z,17.20
2019-05-23T00:10:53.021Z,17.20
2019-05-23T00:15:58.391Z,17.20
2019-05-23T00:21:03.501Z,17.10
2019-05-23T00:26:08.042Z,17.10
2019-05-23T00:31:23.287Z,17.10
2019-05-23T00:36:29.393Z,17.10
2019-05-23T00:41:33.968Z,17.10
2019-05-23T00:46:39.419Z,17.00
2019-05-23T00:51:43.780Z,17.00
2019-05-23T00:56:48.147Z,17.00
2019-05-23T01:02:26.104Z,17.00
2019-05-23T01:07:30.948Z,17.00
2019-05-23T01:12:36.336Z,16.90
2019-05-23T01:17:42.548Z,16.90
2019-05-23T01:22:48.486Z,16.90
2019-05-23T01:27:53.115Z,16.80
2019-05-23T01:33:02.124Z,16.80
2019-05-23T01:38:07.963Z,16.80
2019-05-23T01:43:13.934Z,16.80
2019-05-23T01:48:18.560Z,16.80
2019-05-23T01:59:47.085Z,16.80
2019-05-23T02:04:52.222Z,16.70
2019-05-23T02:09:56.700Z,16.70
2019-05-23T02:15:01.805Z,16.70
2019-05-23T02:20:12.898Z,16.70
2019-05-23T02:25:19.306Z,16.70
2019-05-23T02:30:34.800Z,16.60
2019-05-23T02:35:31.448Z,16.60
2019-05-23T02:40:40.240Z,16.60
2019-05-23T02:45:59.618Z,16.60
2019-05-23T02:51:23.665Z,16.60
2019-05-23T02:56:33.135Z,16.50
2019-05-23T03:02:02.968Z,16.50
2019-05-23T03:07:09.004Z,16.50
2019-05-23T03:12:15.428Z,16.50
2019-05-23T03:17:24.611Z,16.50
2019-05-23T03:22:48.946Z,16.50
2019-05-23T03:27:54.459Z,16.50
2019-05-23T03:33:00.406Z,16.40
2019-05-23T03:38:05.844Z,16.50
2019-05-23T03:43:11.679Z,16.40
2019-05-23T03:48:16.221Z,16.50
2019-05-23T03:53:21.678Z,16.40
2019-05-23T03:58:26.937Z,16.40
2019-05-23T04:03:31.244Z,16.40
2019-05-23T04:08:36.780Z,16.40
2019-05-23T04:13:41.629Z,16.40
2019-05-23T04:18:46.203Z,16.40
2019-05-23T04:23:50.672Z,16.30
2019-05-23T04:28:54.981Z,16.30
2019-05-23T04:33:59.580Z,16.30
2019-05-23T04:39:04.745Z,16.30
2019-05-23T04:44:09.054Z,16.30
2019-05-23T04:49:13.891Z,16.30
2019-05-23T04:54:18.203Z,16.30
2019-05-23T04:59:23.285Z,16.30
2019-05-23T05:04:28.035Z,16.30
2019-05-23T05:09:33.114Z,16.30
2019-05-23T05:14:38.122Z,16.30
2019-05-23T05:19:42.435Z,16.30
2019-05-23T05:24:46.927Z,16.30
2019-05-23T05:29:51.314Z,16.30
2019-05-23T05:34:55.776Z,16.30
2019-05-23T05:40:00.425Z,16.30
2019-05-23T05:45:09.307Z,16.30
2019-05-23T05:50:16.893Z,16.40
2019-05-23T05:55:22.349Z,16.50
2019-05-23T06:00:29.326Z,16.50
2019-05-23T06:05:35.853Z,16.50
2019-05-23T06:10:40.227Z,16.60
2019-05-23T06:15:44.865Z,16.60
2019-05-23T06:20:49.841Z,16.60
2019-05-23T06:25:54.153Z,16.60
2019-05-23T06:30:58.914Z,16.60
2019-05-23T06:36:03.282Z,16.60
2019-05-23T06:41:07.930Z,16.60
2019-05-23T06:46:12.868Z,16.60
2019-05-23T06:51:17.233Z,16.60
2019-05-23T06:56:22.492Z,16.60
2019-05-23T07:01:26.977Z,16.70
2019-05-23T07:06:31.285Z,16.70
2019-05-23T07:11:36.061Z,16.80
2019-05-23T07:16:40.709Z,16.80
2019-05-23T07:21:45.017Z,16.80
2019-05-23T07:26:49.495Z,16.80
2019-05-23T07:31:53.967Z,16.90
2019-05-23T07:36:58.651Z,16.90
2019-05-23T07:42:04.156Z,16.90
2019-05-23T07:47:10.351Z,17.00
2019-05-23T07:52:14.657Z,16.90
2019-05-23T07:57:21.326Z,17.00
2019-05-23T08:02:33.021Z,17.00
2019-05-23T08:07:38.072Z,17.00
2019-05-23T08:12:44.459Z,17.00
2019-05-23T08:17:48.776Z,17.10
2019-05-23T08:22:53.079Z,17.10
2019-05-23T08:27:57.600Z,17.10
2019-05-23T08:33:02.249Z,17.10
2019-05-23T08:38:07.846Z,17.20
2019-05-23T08:43:12.400Z,17.20
2019-05-23T08:48:17.445Z,17.20
2019-05-23T08:53:21.936Z,17.30
2019-05-23T08:58:26.404Z,17.30
2019-05-23T09:03:31.088Z,17.30
2019-05-23T09:08:36.610Z,17.30
2019-05-23T09:13:41.310Z,17.40
2019-05-23T09:18:45.711Z,17.40
2019-05-23T09:23:50.300Z,17.40
2019-05-23T09:28:54.944Z,17.40
2019-05-23T09:33:59.593Z,17.40
2019-05-23T09:39:06.348Z,17.40
2019-05-23T09:44:11.156Z,17.40
2019-05-23T09:49:15.629Z,17.40
2019-05-23T09:54:20.001Z,17.50
2019-05-23T09:59:25.065Z,17.50
2019-05-23T10:04:29.375Z,17.50
2019-05-23T10:09:33.677Z,17.50
2019-05-23T10:14:39.922Z,17.50
2019-05-23T10:19:44.434Z,17.60
2019-05-23T10:24:48.740Z,17.60
2019-05-23T10:29:53.037Z,17.60
2019-05-23T10:34:57.717Z,17.70
2019-05-23T10:40:02.310Z,17.70
2019-05-23T10:45:08.920Z,17.80
2019-05-23T10:50:13.461Z,17.90
2019-05-23T10:55:17.936Z,17.90
2019-05-23T11:00:23.322Z,18.00
2019-05-23T11:05:27.627Z,18.00
2019-05-23T11:10:32.399Z,18.10
2019-05-23T11:15:37.848Z,18.10
2019-05-23T11:20:42.373Z,18.20
2019-05-23T11:25:47.542Z,18.20
2019-05-23T11:30:53.893Z,18.30
2019-05-23T11:35:58.185Z,18.30
2019-05-23T11:41:03.119Z,18.40
2019-05-23T11:46:09.075Z,18.40
2019-05-23T11:51:33.259Z,18.40
2019-05-23T11:56:38.570Z,18.50
2019-05-23T12:01:44.649Z,18.60
2019-05-23T12:06:55.534Z,18.60
2019-05-23T12:11:56.627Z,18.60
2019-05-23T12:17:00.923Z,18.70
2019-05-23T12:22:05.511Z,18.70
2019-05-23T12:27:10.098Z,18.70
2019-05-23T12:32:14.675Z,18.80
2019-05-23T12:37:20.608Z,18.80
2019-05-23T12:42:25.107Z,18.80
2019-05-23T12:47:31.053Z,18.90
2019-05-23T12:52:35.832Z,18.90
2019-05-23T12:57:40.497Z,18.90
2019-05-23T13:02:45.164Z,19.00
2019-05-23T13:07:49.540Z,19.10
2019-05-23T13:12:53.849Z,19.10
2019-05-23T13:17:58.167Z,19.10
2019-05-23T13:23:02.540Z,19.10
2019-05-23T13:28:06.912Z,19.20
2019-05-23T13:33:11.411Z,19.20
2019-05-23T13:38:16.017Z,19.40
2019-05-23T13:43:20.326Z,19.40
2019-05-23T13:48:27.962Z,19.50
2019-05-23T13:53:31.161Z,19.50
2019-05-23T13:58:35.738Z,19.50
2019-05-23T14:03:40.354Z,19.60
2019-05-23T14:08:44.659Z,19.70
2019-05-23T14:13:58.712Z,19.70
2019-05-23T14:18:55.087Z,19.80
2019-05-23T14:23:59.928Z,19.80
2019-05-23T14:29:04.559Z,19.90
2019-05-23T14:34:10.203Z,20.00
2019-05-23T14:39:16.215Z,20.00
2019-05-23T14:44:20.888Z,20.10
2019-05-23T14:49:29.869Z,20.20
2019-05-23T14:54:39.024Z,20.20
2019-05-23T14:59:43.510Z,20.20
2019-05-23T15:04:47.877Z,20.10
2019-05-23T15:09:52.203Z,20.10
2019-05-23T15:14:56.510Z,20.00
2019-05-23T15:20:00.955Z,20.00
2019-05-23T15:25:10.054Z,20.00
2019-05-23T15:30:14.730Z,19.90
2019-05-23T15:35:19.193Z,19.90
2019-05-23T15:40:23.938Z,19.90
2019-05-23T15:45:28.608Z,19.80
2019-05-23T15:50:34.605Z,19.90
2019-05-23T15:55:49.290Z,20.00
2019-05-23T16:00:55.375Z,20.20
2019-05-23T16:06:00.574Z,20.30
2019-05-23T16:11:05.237Z,20.50
2019-05-23T16:16:09.919Z,20.60
2019-05-23T16:21:14.857Z,20.70
2019-05-23T16:26:19.156Z,20.80
2019-05-23T16:31:23.621Z,20.80
2019-05-23T16:36:27.954Z,20.90
2019-05-23T16:41:32.260Z,20.90
2019-05-23T16:46:36.560Z,20.90
2019-05-23T16:51:41.031Z,20.90
2019-05-23T16:57:02.394Z,20.90
2019-05-23T17:02:20.380Z,20.90
2019-05-23T17:07:26.763Z,20.90
2019-05-23T17:12:32.703Z,20.90
2019-05-23T17:18:00.672Z,20.90
2019-05-23T17:22:54.987Z,20.90
2019-05-23T17:28:03.374Z,20.90
2019-05-23T17:33:09.293Z,20.90
2019-05-23T17:38:13.679Z,20.90
2019-05-23T17:43:17.972Z,20.90
2019-05-23T17:48:22.277Z,20.90
2019-05-23T17:53:26.576Z,20.90
2019-05-23T17:58:31.144Z,20.90
2019-05-23T18:03:35.452Z,20.80
2019-05-23T18:08:39.776Z,20.80
2019-05-23T18:13:44.541Z,20.70
2019-05-23T18:18:48.846Z,20.70
2019-05-23T18:23:54.589Z,20.60
2019-05-23T18:28:59.263Z,20.60
2019-05-23T18:34:05.222Z,20.50
2019-05-23T18:39:11.804Z,20.50
2019-05-23T18:44:16.642Z,20.50
2019-05-23T18:49:22.396Z,20.50
2019-05-23T18:54:26.738Z,20.40
2019-05-23T18:59:31.713Z,20.40
2019-05-23T19:04:36.020Z,20.30
2019-05-23T19:09:41.959Z,20.30
2019-05-23T19:14:46.411Z,20.20
2019-05-23T19:19:50.777Z,20.20
2019-05-23T19:24:55.650Z,20.10
2019-05-23T19:30:00.030Z,20.10
2019-05-23T19:35:05.649Z,20.00
2019-05-23T19:40:10.382Z,19.90
2019-05-23T19:45:14.766Z,19.80
2019-05-23T19:50:19.332Z,19.70
2019-05-23T19:55:23.879Z,19.60
2019-05-23T20:00:29.889Z,19.50
2019-05-23T20:05:36.105Z,19.40
2019-05-23T20:10:40.637Z,19.40
2019-05-23T20:15:46.154Z,19.40
2019-05-23T20:20:51.403Z,19.40
2019-05-23T20:25:55.726Z,19.40
2019-05-23T20:31:00.315Z,19.40
2019-05-23T20:36:06.335Z,19.40
2019-05-23T20:41:11.429Z,19.20
2019-05-23T20:46:16.075Z,19.10
2019-05-23T20:51:21.306Z,19.00
2019-05-23T20:56:25.620Z,18.90
2019-05-23T21:01:34.514Z,18.80
2019-05-23T21:06:38.857Z,18.70
2019-05-23T21:11:43.233Z,18.60
2019-05-23T21:16:47.542Z,18.50
2019-05-23T21:21:51.923Z,18.50
2019-05-23T21:26:56.220Z,18.40
2019-05-23T21:32:00.524Z,18.30
2019-05-23T21:37:04.862Z,18.20
2019-05-23T21:42:09.166Z,18.20
2019-05-23T21:47:13.513Z,18.10
2019-05-23T21:52:17.999Z,18.10
2019-05-23T21:57:22.296Z,18.10
2019-05-23T22:02:34.157Z,18.10
2019-05-23T22:07:38.489Z,18.00
2019-05-23T22:12:42.783Z,18.10
2019-05-23T22:17:48.728Z,18.20
2019-05-23T22:22:53.036Z,18.20
2019-05-23T22:27:57.341Z,18.30
2019-05-23T22:33:02.432Z,18.30
2019-05-23T22:38:08.164Z,18.40
2019-05-23T23:08:08.991Z,18.50
2019-05-23T23:13:14.328Z,18.60
2019-05-23T23:18:18.689Z,18.60
2019-05-23T23:23:23.002Z,18.60
2019-05-23T23:28:27.468Z,18.70
2019-05-23T23:33:31.775Z,18.70
2019-05-23T23:38:36.083Z,18.70
2019-05-23T23:43:56.234Z,18.80
2019-05-23T23:49:03.929Z,18.80
2019-05-23T23:54:26.176Z,18.80
2019-05-23T23:59:29.997Z,18.80
